Terminal Aerodrome Forecast
Issued by NWS

Home | Current Version | Previous Version | Text Only | Print | Product List | Glossary On
Versions: 1 2 3 4 5 6 7 8 9 10 11 12 13 14 15 16 17 18 19 20 21 22 23
000
FTUS45 KREV 291725
TAFCXP
TAF
KCXP 291725Z 2918/3018 23005KT P6SM SKC
     FM292200 27012G21KT P6SM VCTS SCT110CB BKN200
     FM300200 26008KT P6SM BKN200
     FM300500 VRB04KT P6SM SCT250=

USA.gov is the U.S. government's official web portal to all federal, state and local government web resources and services.